• Join FlightAware (Why Join?)
  • Login
  • US Flag 
10:22PM EST


 

Airport Tracker/Info


-or-


 

Live Flight TrackerFlight Track Log ✈ N500CD ✈ 27-May-2014 ✈ KVLD - KPMP

Flight Track Log - Related Links

Times and Time Zones

All times are in EDT time to prevent confusion due to time zone crossing. See the N500CD flight status page for this flight to view local times or setup timezone preferences in your user account.

Time Position Orientation Groundspeed Altitude Reporting Facility
EDT Latitude Longitude Course Direction KTS MPH feet Rate Location/Type
05:55AM 30.6650 -83.2042 151° Southeast 181 208 6,000  Level Jacksonville Center
05:55AM 30.6442 -83.1822 138° Southeast 266 306 7,300 2,160 Climbing Jacksonville Center
05:56AM 30.6211 -83.1725 160° South 183 211 8,200 1,860 Climbing Jacksonville Center
05:56AM 30.6003 -83.1533 142° Southeast 216 249 9,200 1,800 Climbing Jacksonville Center
05:57AM 30.5775 -83.1386 151° Southeast 188 216 10,000 1,860 Climbing Jacksonville Center
05:57AM 30.5522 -83.1194 147° Southeast 197 227 11,100 2,040 Climbing Jacksonville Center
05:58AM 30.5253 -83.1144 171° South 201 231 12,100 1,860 Climbing Jacksonville Center
05:58AM 30.5022 -83.0975 148° Southeast 191 220 13,000 1,620 Climbing Jacksonville Center
05:59AM 30.4644 -83.0440 147° Southeast  Level Estimated
05:59AM 30.4753 -83.0903 167° South 197 227 13,800  Level Jacksonville Center
05:59AM 30.4500 -83.0733 150° Southeast 191 220 14,600 1,500 Climbing Jacksonville Center
06:00AM 30.4208 -83.0636 164° South 203 234 15,300 1,500 Climbing Jacksonville Center
06:00AM 30.3958 -83.0492 154° Southeast 202 232 16,100 1,560 Climbing Jacksonville Center
06:01AM 30.3625 -83.0369 162° South 219 252 16,900 1,560 Climbing Jacksonville Center
06:01AM 30.3394 -83.0225 152° Southeast 212 244 17,700 1,260 Climbing Jacksonville Center
06:02AM 30.3083 -83.0106 162° South 222 255 18,200 1,200 Climbing Jacksonville Center
06:02AM 30.2831 -82.9961 154° Southeast 212 244 18,900 1,560 Climbing Jacksonville Center
06:03AM 30.2478 -82.9817 161° South 220 253 19,800 1,500 Climbing Jacksonville Center
06:03AM 30.2269 -82.9694 153° Southeast 218 251 20,400 1,140 Climbing Jacksonville Center
06:04AM 30.1956 -82.9600 165° South 220 253 21,000 1,200 Climbing Jacksonville Center
06:04AM 30.1706 -82.9406 146° Southeast 218 251 21,600 1,380 Climbing Jacksonville Center
06:05AM 30.1350 -82.9286 164° South 223 257 22,400 1,260 Climbing Jacksonville Center
06:05AM 30.1119 -82.9142 152° Southeast 223 257 22,900 1,080 Climbing Jacksonville Center
06:06AM 30.0764 -82.9044 167° South 227 261 23,500 1,080 Climbing Jacksonville Center
06:06AM 30.0514 -82.8853 146° Southeast 228 262 24,000 1,020 Climbing Jacksonville Center
06:07AM 29.9931 -82.8614 160° South 242 278 25,000 1,080 Climbing Jacksonville Center
06:08AM 29.9261 -82.8328 160° South 248 285 26,200 1,200 Climbing Jacksonville Center
06:09AM 29.8594 -82.8017 158° South 254 292 27,400 1,140 Climbing Jacksonville Center
06:10AM 29.7925 -82.7706 158° South 254 292 28,500 1,080 Climbing Jacksonville Center
06:11AM 29.7278 -82.7419 159° South 248 285 29,600 1,080 Climbing Jacksonville Center
06:12AM 29.6589 -82.7086 157° South 254 292 30,700 660 Climbing Jacksonville Center
06:13AM 29.5858 -82.6728 157° South 265 305 31,000 120 Climbing Jacksonville Center
06:14AM 29.5022 -82.6347 158° South 294 338 31,000  Level Jacksonville Center
06:15AM 29.4164 -82.5947 158° South 323 372 31,000  Level Jacksonville Center
06:16AM 29.3267 -82.5544 159° South 339 390 31,000  Level Jacksonville Center
06:17AM 29.2389 -82.5117 157° South 344 396 31,000  Level Jacksonville Center
06:18AM 29.1469 -82.4694 158° South 349 402 31,000  Level Jacksonville Center
06:20AM 28.9956 -82.4533 175° South 349 402 31,000  Level Miami Center
06:21AM 28.8956 -82.4597 183° South 351 404 31,000  Level Miami Center
06:22AM 28.7964 -82.4653 183° South 356 410 31,000  Level Miami Center
06:23AM 28.6969 -82.4708 183° South 356 410 31,000  Level Miami Center
06:24AM 28.5978 -82.4764 183° South 357 411 31,000  Level Miami Center
06:25AM 28.4881 -82.4822 183° South 357 411 31,000  Level Miami Center
06:26AM 28.3889 -82.4883 183° South 357 411 31,000  Level Miami Center
06:27AM 28.2939 -82.4933 183° South 357 411 31,000  Level Miami Center
06:28AM 28.1950 -82.4992 183° South 357 411 31,000  Level Miami Center
06:29AM 28.0944 -82.5056 183° South 359 413 31,000  Level Miami Center
06:30AM 27.9942 -82.5111 183° South 360 414 31,000  Level Miami Center
06:31AM 27.8967 -82.4914 170° South 360 414 31,000  Level Miami Center
06:32AM 27.8008 -82.4558 162° South 361 415 31,000  Level Miami Center
06:33AM 27.6925 -82.4156 162° South 362 417 31,000  Level Miami Center
06:34AM 27.6000 -82.3817 162° South 361 415 31,000  Level Miami Center
06:35AM 27.5003 -82.3447 162° South 360 414 31,000  Level Miami Center
06:36AM 27.4008 -82.3078 162° South 360 414 31,000 -420 Level Miami Center
06:37AM 27.3083 -82.2750 163° South 360 414 30,200 -960 Descending Miami Center
06:38AM 27.2047 -82.2364 162° South 370 426 29,100 -1,080 Descending Miami Center
06:39AM 27.1072 -82.2003 162° South 374 430 28,100 -1,080 Descending Miami Center
06:40AM 27.0014 -82.1636 163° South 378 435 27,000 -1,140 Descending Miami Center
06:41AM 26.9161 -82.1067 149° Southeast 372 428 25,800 -1,140 Descending Miami Center
06:42AM 26.8525 -82.0156 128° Southeast 374 430 24,800 -1,140 Descending Miami Center
06:43AM 26.7903 -81.9258 128° Southeast 368 423 23,600 -1,140 Descending Miami Center
06:44AM 26.7272 -81.8358 128° Southeast 368 423 22,600 -1,080 Descending Miami Center
06:45AM 26.6631 -81.7444 128° Southeast 375 432 21,500 -1,140 Descending Miami Center
06:46AM 26.5983 -81.6556 129° Southeast 372 428 20,400 -1,200 Descending Miami Center
06:47AM 26.5267 -81.5547 128° Southeast 372 428 19,200 -780 Descending Miami Center
06:48AM 26.4722 -81.4783 129° Southeast 360 414 18,900 -780 Descending Miami Center
06:49AM 26.4022 -81.3797 128° Southeast 355 409 17,700 -1,440 Descending Miami Center
06:50AM 26.3400 -81.2953 129° Southeast 354 407 16,100 -1,860 Descending Miami Center
06:51AM 26.2853 -81.2178 128° Southeast 314 361 14,000 -2,100 Descending Miami Center
06:52AM 26.2489 -81.1689 130° Southeast 306 352 12,800 -1,920 Descending Miami Center
06:52AM 26.2314 -81.1436 128° Southeast 311 358 12,100 -1,980 Descending Miami Center
06:52AM 26.2047 -81.1092 131° Southeast 313 360 11,200 -2,040 Descending Miami Center
06:53AM 26.1747 -81.0647 127° Southeast 303 349 10,100 -1,920 Descending Miami Center
06:53AM 26.1589 -81.0450 132° Southeast 289 333 9,500 -1,620 Descending Miami Center
06:54AM 26.1347 -81.0097 127° Southeast 289 333 8,500 -1,680 Descending Miami Center
06:54AM 26.1114 -80.9739 126° Southeast 277 319 7,800 -1,620 Descending Miami Center
06:55AM 26.1042 -80.9167 98° East 272 313 6,900 -1,140 Descending Miami Center
06:55AM 26.1083 -80.8947 78° East 264 304 6,700 -900 Descending Miami Center
06:56AM 26.1233 -80.8367 74° East 269 310 6,000 -720 Descending Miami Center
06:56AM 26.1283 -80.8150 76° East 271 312 6,000 -480 Level Miami Center
06:57AM 26.1508 -80.7286 74° East 274 315 5,400 -780 Descending Miami Center
06:58AM 26.1742 -80.6797 62° Northeast 270 311 4,700 -1,020 Descending Miami Center
06:58AM 26.1850 -80.6547 64° Northeast 267 307 4,400 -720 Descending Miami Center
06:59AM 26.2083 -80.6064 62° Northeast 268 308 4,000 -360 Descending Miami Center
06:59AM 26.2239 -80.5744 62° Northeast 268 308 4,000  Level Miami Center
07:00AM 26.2439 -80.5303 63° Northeast 273 314 4,000  Level Miami Center
07:00AM 26.2578 -80.5028 61° Northeast 283 326 4,000 -600 Level Miami Center
07:01AM 26.2817 -80.4519 62° Northeast 273 314 3,400 -780 Descending Miami Center
07:02AM 26.2989 -80.4175 61° Northeast 251 289 3,100 -420 Descending Miami Center
07:02AM 26.3139 -80.3833 64° Northeast 254 292 3,000 -120 Descending Miami Center
07:03AM 26.3281 -80.3525 63° Northeast 255 293 3,000 -300 Level Miami Center
07:03AM 26.3475 -80.3142 60° Northeast 253 291 2,700 -840 Descending Miami Center
07:04AM 26.3519 -80.2731 83° East 244 281 2,100 -720 Descending Miami Center
07:04AM 26.3561 -80.2397 82° East 242 278 2,000 -120 Descending Miami Center
07:05AM 26.3542 -80.2058 94° East 169 194 2,000  Level Miami Center
07:05AM 26.3428 -80.1875 125° Southeast 185 213 2,000 120 Level Miami Center
07:05AM 26.3286 -80.1758 144° Southeast 178 205 2,100 -420 Climbing Miami Center
07:06AM 26.3033 -80.1558 145° Southeast 163 188 1,600 -840 Descending Miami Center
07:06AM 26.2947 -80.1500 149° Southeast 142 163 1,300 -900 Descending Miami Center
07:07AM 26.2756 -80.1339 143° Southeast 128 147 700 -840 Descending Miami Center
07:07AM 26.2689 -80.1294 149° Southeast 104 120 500 -600 Descending Miami Center
07:08AM 26.2558 -80.1172 140° Southeast 102 117 100 -600 Descending Miami Center
07:10AM 26.2474 -80.1112 156° South  Level Estimated